createdAt,value
2018-12-29T00:00:39.669Z,999.90
2018-12-29T00:01:39.698Z,999.90
2018-12-29T00:02:39.670Z,999.90
2018-12-29T00:03:39.693Z,999.90
2018-12-29T00:04:39.655Z,999.90
2018-12-29T00:05:39.661Z,999.90
2018-12-29T00:06:39.636Z,999.90
2018-12-29T00:07:39.666Z,999.90
2018-12-29T00:08:39.630Z,999.90
2018-12-29T00:09:39.615Z,999.90
2018-12-29T00:10:39.613Z,999.90
2018-12-29T00:11:39.604Z,999.90
2018-12-29T00:12:39.605Z,999.90
2018-12-29T00:13:39.610Z,999.90
2018-12-29T00:14:39.588Z,999.90
2018-12-29T00:15:39.604Z,999.90
2018-12-29T00:16:39.630Z,999.90
2018-12-29T00:17:39.577Z,999.90
2018-12-29T00:18:39.580Z,999.90
2018-12-29T00:19:39.585Z,999.90
2018-12-29T00:20:39.562Z,999.90
2018-12-29T00:21:39.576Z,999.90
2018-12-29T00:22:39.534Z,999.90
2018-12-29T00:23:39.586Z,999.90
2018-12-29T00:24:39.530Z,999.90
2018-12-29T00:25:39.514Z,999.90
2018-12-29T00:26:39.532Z,999.90
2018-12-29T00:27:39.539Z,999.90
2018-12-29T00:28:39.517Z,999.90
2018-12-29T00:29:39.560Z,999.90
2018-12-29T00:30:39.511Z,999.90
2018-12-29T00:31:39.545Z,999.90
2018-12-29T00:32:39.504Z,999.90
2018-12-29T00:33:39.467Z,999.90
2018-12-29T00:34:39.471Z,999.90
2018-12-29T00:35:39.472Z,999.90
2018-12-29T00:36:39.445Z,999.90
2018-12-29T00:37:39.455Z,999.90
2018-12-29T00:38:39.460Z,999.90
2018-12-29T00:39:39.442Z,999.90
2018-12-29T00:40:39.443Z,999.90
2018-12-29T00:41:39.419Z,999.90
2018-12-29T00:42:39.434Z,999.90
2018-12-29T00:43:39.459Z,999.90
2018-12-29T00:44:39.432Z,999.90
2018-12-29T00:45:39.404Z,999.90
2018-12-29T00:46:39.391Z,999.90
2018-12-29T00:47:39.397Z,999.90
2018-12-29T00:48:39.393Z,999.90
2018-12-29T00:49:39.371Z,999.90
2018-12-29T00:50:39.389Z,999.90
2018-12-29T00:51:39.434Z,999.90
2018-12-29T00:52:39.412Z,999.90
2018-12-29T00:53:39.369Z,999.90
2018-12-29T00:54:39.335Z,999.90
2018-12-29T00:55:39.354Z,999.90
2018-12-29T00:56:39.382Z,999.90
2018-12-29T00:57:39.332Z,999.90
2018-12-29T00:58:39.321Z,999.90
2018-12-29T00:59:39.323Z,999.90
2018-12-29T01:00:39.316Z,999.90
2018-12-29T01:01:39.286Z,999.90
2018-12-29T01:02:39.310Z,999.90
2018-12-29T01:03:39.277Z,999.90
2018-12-29T01:04:39.263Z,999.90
2018-12-29T01:05:39.295Z,999.90
2018-12-29T01:06:39.265Z,999.90
2018-12-29T01:07:39.284Z,999.90
2018-12-29T01:08:39.267Z,999.90
2018-12-29T01:09:39.265Z,999.90
2018-12-29T01:10:39.248Z,999.90
2018-12-29T01:11:39.232Z,999.90
2018-12-29T01:12:39.244Z,999.90
2018-12-29T01:13:39.232Z,999.90
2018-12-29T01:14:39.272Z,999.90
2018-12-29T01:15:39.222Z,999.90
2018-12-29T01:16:39.201Z,999.90
2018-12-29T01:17:39.220Z,999.90
2018-12-29T01:18:39.216Z,999.90
2018-12-29T01:19:39.210Z,999.90
2018-12-29T01:20:39.198Z,999.90
2018-12-29T01:21:39.175Z,999.90
2018-12-29T01:22:39.158Z,999.90
2018-12-29T01:23:39.191Z,999.90
2018-12-29T01:24:39.204Z,999.90
2018-12-29T01:25:39.149Z,999.90
2018-12-29T01:26:39.144Z,999.90
2018-12-29T01:27:39.146Z,999.90
2018-12-29T01:28:39.151Z,999.90
2018-12-29T01:29:39.118Z,999.90
2018-12-29T01:30:39.126Z,999.90
2018-12-29T01:31:39.094Z,999.90
2018-12-29T01:32:39.275Z,999.90
2018-12-29T01:33:39.095Z,999.90
2018-12-29T01:34:39.107Z,999.90
2018-12-29T01:35:39.102Z,999.90
2018-12-29T01:36:39.081Z,999.90
2018-12-29T01:37:39.098Z,999.90
2018-12-29T01:38:39.087Z,999.90
2018-12-29T01:39:39.059Z,999.90
2018-12-29T01:40:39.037Z,999.90
2018-12-29T01:41:39.064Z,999.90
2018-12-29T01:42:39.057Z,999.90
2018-12-29T01:43:39.050Z,999.90
2018-12-29T01:44:39.041Z,999.90
2018-12-29T01:45:39.012Z,999.90
2018-12-29T01:46:39.078Z,999.90
2018-12-29T01:47:39.023Z,999.90
2018-12-29T01:48:38.992Z,999.90
2018-12-29T01:49:38.994Z,999.90
2018-12-29T01:50:38.994Z,999.90
2018-12-29T01:51:38.988Z,999.90
2018-12-29T01:52:38.996Z,999.90
2018-12-29T01:53:38.971Z,999.90
2018-12-29T01:54:38.956Z,999.90
2018-12-29T01:55:38.967Z,999.90
2018-12-29T01:56:38.964Z,999.90
2018-12-29T01:57:38.947Z,999.90
2018-12-29T01:58:38.927Z,999.90
2018-12-29T01:59:38.941Z,999.90
2018-12-29T02:00:38.935Z,999.90
2018-12-29T02:01:38.939Z,999.90
2018-12-29T02:02:38.919Z,999.90
2018-12-29T02:03:38.902Z,999.90
2018-12-29T02:04:38.894Z,999.90
2018-12-29T02:05:38.907Z,999.90
2018-12-29T02:06:38.875Z,999.90
2018-12-29T02:07:38.885Z,999.90
2018-12-29T02:08:38.873Z,999.90
2018-12-29T02:09:38.881Z,999.90
2018-12-29T02:10:38.901Z,999.90
2018-12-29T02:11:38.867Z,999.90
2018-12-29T02:12:38.841Z,999.90
2018-12-29T02:13:38.840Z,999.90
2018-12-29T02:14:38.889Z,999.90
2018-12-29T02:15:38.833Z,999.90
2018-12-29T02:16:38.837Z,999.90
2018-12-29T02:17:38.817Z,999.90
2018-12-29T02:18:38.826Z,999.90
2018-12-29T02:19:38.794Z,999.90
2018-12-29T02:20:38.796Z,999.90
2018-12-29T02:21:38.799Z,999.90
2018-12-29T02:22:38.790Z,999.90
2018-12-29T02:23:38.762Z,999.90
2018-12-29T02:24:38.770Z,999.90
2018-12-29T02:25:38.759Z,999.90
2018-12-29T02:26:38.760Z,999.90
2018-12-29T02:27:38.758Z,999.90
2018-12-29T02:28:38.742Z,999.90
2018-12-29T02:29:38.739Z,999.90
2018-12-29T02:30:38.732Z,999.90
2018-12-29T02:31:38.761Z,999.90
2018-12-29T02:32:38.735Z,999.90
2018-12-29T02:33:38.721Z,999.90
2018-12-29T02:34:38.706Z,999.90
2018-12-29T02:35:38.692Z,999.90
2018-12-29T02:36:38.665Z,999.90
2018-12-29T02:37:38.697Z,999.90
2018-12-29T02:38:38.659Z,999.90
2018-12-29T02:39:38.665Z,999.90
2018-12-29T02:40:38.655Z,999.90
2018-12-29T02:41:38.635Z,999.90
2018-12-29T02:42:38.667Z,999.90
2018-12-29T02:43:38.639Z,999.90
2018-12-29T02:44:38.656Z,999.90
2018-12-29T02:45:38.628Z,999.90
2018-12-29T02:46:38.632Z,999.90
2018-12-29T02:47:38.625Z,999.90
2018-12-29T02:48:38.591Z,999.90
2018-12-29T02:49:38.614Z,999.90
2018-12-29T02:50:38.637Z,999.90
2018-12-29T02:51:38.593Z,999.90
2018-12-29T02:52:38.631Z,999.90
2018-12-29T02:53:38.572Z,999.90
2018-12-29T02:54:38.626Z,999.90
2018-12-29T02:55:38.614Z,999.90
2018-12-29T02:56:38.561Z,999.90
2018-12-29T02:57:38.555Z,999.90
2018-12-29T02:58:38.540Z,999.90
2018-12-29T02:59:38.518Z,999.90
2018-12-29T03:00:38.533Z,999.90
2018-12-29T03:01:38.537Z,999.90
2018-12-29T03:02:38.513Z,999.90
2018-12-29T03:03:38.513Z,999.90
2018-12-29T03:04:38.523Z,999.90
2018-12-29T03:05:38.515Z,999.90
2018-12-29T03:06:38.493Z,999.90
2018-12-29T03:07:38.460Z,999.90
2018-12-29T03:08:38.476Z,999.90
2018-12-29T03:09:38.455Z,999.90
2018-12-29T03:10:38.470Z,999.90
2018-12-29T03:11:38.472Z,999.90
2018-12-29T03:12:38.438Z,999.90
2018-12-29T03:13:38.433Z,999.90
2018-12-29T03:14:38.422Z,999.90
2018-12-29T03:15:41.502Z,999.90
2018-12-29T03:16:38.427Z,999.90
2018-12-29T03:17:38.420Z,999.90
2018-12-29T03:18:38.408Z,999.90
2018-12-29T03:19:38.423Z,999.90
2018-12-29T03:20:38.397Z,999.90
2018-12-29T03:21:38.401Z,999.90
2018-12-29T03:22:38.398Z,999.90
2018-12-29T03:23:38.385Z,999.90
2018-12-29T03:24:38.369Z,999.90
2018-12-29T03:25:38.354Z,999.90
2018-12-29T03:26:38.358Z,999.90
2018-12-29T03:27:38.362Z,999.90
2018-12-29T03:28:38.344Z,999.90
2018-12-29T03:29:38.332Z,999.90
2018-12-29T03:30:38.320Z,999.90
2018-12-29T03:31:38.321Z,999.90
2018-12-29T03:32:38.327Z,999.90
2018-12-29T03:33:38.293Z,999.90
2018-12-29T03:34:38.306Z,999.90
2018-12-29T03:35:38.291Z,999.90
2018-12-29T03:36:38.326Z,999.90
2018-12-29T03:37:38.275Z,999.90
2018-12-29T03:38:38.283Z,999.90
2018-12-29T03:39:38.274Z,999.90
2018-12-29T03:40:38.278Z,999.90
2018-12-29T03:41:38.256Z,999.90
2018-12-29T03:42:38.261Z,999.90
2018-12-29T03:43:38.253Z,999.90
2018-12-29T03:44:38.234Z,999.90
2018-12-29T03:45:38.240Z,999.90
2018-12-29T03:46:38.230Z,999.90
2018-12-29T03:47:38.223Z,999.90
2018-12-29T03:48:38.197Z,999.90
2018-12-29T03:49:38.209Z,999.90
2018-12-29T03:50:38.173Z,999.90
2018-12-29T03:51:38.189Z,999.90
2018-12-29T03:52:38.160Z,999.90
2018-12-29T03:53:38.154Z,999.90
2018-12-29T03:54:38.165Z,999.90
2018-12-29T03:55:38.176Z,999.90
2018-12-29T03:56:38.151Z,999.90
2018-12-29T03:57:38.130Z,999.90
2018-12-29T03:58:38.144Z,999.90
2018-12-29T03:59:38.131Z,999.90
2018-12-29T04:00:38.124Z,999.90
2018-12-29T04:01:38.118Z,999.90
2018-12-29T04:02:38.106Z,999.90
2018-12-29T04:03:38.114Z,999.90
2018-12-29T04:04:38.102Z,999.90
2018-12-29T04:05:38.082Z,999.90
2018-12-29T04:06:38.087Z,999.90
2018-12-29T04:07:38.071Z,999.90
2018-12-29T04:08:38.073Z,999.90
2018-12-29T04:09:38.052Z,999.90
2018-12-29T04:10:38.056Z,999.90
2018-12-29T04:11:38.052Z,999.90
2018-12-29T04:12:38.051Z,999.90
2018-12-29T04:13:38.025Z,999.90
2018-12-29T04:14:38.026Z,999.90
2018-12-29T04:15:38.022Z,999.90
2018-12-29T04:16:38.006Z,999.90
2018-12-29T04:17:38.001Z,999.90
2018-12-29T04:18:38.002Z,999.90
2018-12-29T04:19:37.995Z,999.90
2018-12-29T04:20:38.009Z,999.90
2018-12-29T04:21:37.959Z,999.90
2018-12-29T04:22:37.982Z,999.90
2018-12-29T04:23:37.970Z,999.90
2018-12-29T04:24:37.964Z,999.90
2018-12-29T04:25:37.930Z,999.90
2018-12-29T04:26:37.938Z,999.90
2018-12-29T04:27:37.932Z,999.90
2018-12-29T04:28:37.934Z,999.90
2018-12-29T04:29:37.915Z,999.90
2018-12-29T04:30:37.908Z,999.90
2018-12-29T04:31:37.908Z,999.90
2018-12-29T04:32:37.887Z,999.90
2018-12-29T04:33:37.917Z,999.90
2018-12-29T04:34:37.883Z,999.90
2018-12-29T04:35:37.859Z,999.90
2018-12-29T04:36:37.879Z,999.90
2018-12-29T04:37:37.857Z,999.90
2018-12-29T04:38:37.841Z,999.90
2018-12-29T04:39:37.856Z,999.90
2018-12-29T04:40:37.834Z,999.90
2018-12-29T04:41:37.837Z,999.90
2018-12-29T04:42:37.828Z,999.90
2018-12-29T04:43:37.889Z,999.90
2018-12-29T04:44:37.814Z,999.90
2018-12-29T04:45:37.789Z,999.90
2018-12-29T04:46:37.801Z,999.90
2018-12-29T04:47:37.777Z,999.90
2018-12-29T04:48:37.787Z,999.90
2018-12-29T04:49:37.764Z,999.90
2018-12-29T04:50:37.806Z,999.90
2018-12-29T04:51:37.746Z,999.90
2018-12-29T04:52:37.743Z,999.90
2018-12-29T04:53:37.760Z,999.90
2018-12-29T04:54:37.726Z,999.90
2018-12-29T04:55:37.737Z,999.90
2018-12-29T04:56:37.762Z,999.90
2018-12-29T04:57:37.711Z,999.90
2018-12-29T04:58:37.703Z,999.90
2018-12-29T04:59:37.705Z,999.90
2018-12-29T05:00:37.693Z,999.90
2018-12-29T05:01:37.688Z,999.90
2018-12-29T05:02:37.652Z,999.90
2018-12-29T05:03:37.678Z,999.90
2018-12-29T05:04:37.662Z,999.90
2018-12-29T05:05:37.668Z,999.90
2018-12-29T05:06:37.646Z,999.90
2018-12-29T05:07:37.619Z,999.90
2018-12-29T05:08:37.620Z,999.90
2018-12-29T05:09:37.642Z,999.90
2018-12-29T05:10:37.626Z,999.90
2018-12-29T05:11:37.604Z,999.90
2018-12-29T05:12:37.629Z,999.90
2018-12-29T05:13:37.593Z,999.90
2018-12-29T05:14:37.593Z,999.90
2018-12-29T05:15:37.599Z,999.90
2018-12-29T05:16:37.570Z,999.90
2018-12-29T05:17:37.566Z,999.90
2018-12-29T05:18:37.562Z,999.90
2018-12-29T05:19:37.527Z,999.90
2018-12-29T05:20:37.538Z,999.90
2018-12-29T05:21:37.540Z,999.90
2018-12-29T05:22:37.510Z,999.90
2018-12-29T05:23:37.521Z,999.90
2018-12-29T05:24:37.488Z,999.90
2018-12-29T05:25:37.550Z,999.90
2018-12-29T05:26:37.537Z,999.90
2018-12-29T05:27:37.506Z,999.90
2018-12-29T05:28:37.472Z,999.90
2018-12-29T05:29:37.514Z,999.90
2018-12-29T05:30:37.481Z,999.90
2018-12-29T05:31:37.520Z,999.90
2018-12-29T05:32:37.463Z,999.90
2018-12-29T05:33:37.456Z,999.90
2018-12-29T05:34:37.444Z,999.90
2018-12-29T05:35:37.437Z,999.90
2018-12-29T05:36:37.431Z,999.90
2018-12-29T05:37:37.409Z,999.90
2018-12-29T05:38:37.430Z,999.90
2018-12-29T05:39:37.399Z,999.90
2018-12-29T05:40:37.393Z,999.90
2018-12-29T05:41:37.389Z,999.90
2018-12-29T05:42:37.432Z,999.90
2018-12-29T05:43:37.360Z,999.90
2018-12-29T05:44:37.362Z,999.90
2018-12-29T05:45:37.343Z,999.90
2018-12-29T05:46:37.363Z,999.90
2018-12-29T05:47:37.334Z,999.90
2018-12-29T05:48:37.352Z,999.90
2018-12-29T05:49:37.323Z,999.90
2018-12-29T05:50:37.342Z,999.90
2018-12-29T05:51:37.330Z,999.90
2018-12-29T05:52:37.321Z,999.90
2018-12-29T05:53:37.283Z,999.90
2018-12-29T05:54:37.278Z,999.90
2018-12-29T05:55:37.293Z,999.90
2018-12-29T05:56:37.277Z,999.90
2018-12-29T05:57:37.253Z,999.90
2018-12-29T05:58:37.252Z,999.90
2018-12-29T05:59:37.256Z,999.90
2018-12-29T06:00:37.262Z,999.90
2018-12-29T06:01:37.231Z,999.90
2018-12-29T06:02:37.224Z,999.90
2018-12-29T06:03:37.222Z,999.90
2018-12-29T06:04:37.219Z,999.90
2018-12-29T06:05:37.202Z,999.90
2018-12-29T06:06:37.211Z,999.90
2018-12-29T06:07:37.175Z,999.90
2018-12-29T06:08:37.192Z,999.90
2018-12-29T06:09:37.184Z,999.90
2018-12-29T06:10:37.172Z,999.90
2018-12-29T06:11:37.161Z,999.90
2018-12-29T06:12:37.151Z,999.90
2018-12-29T06:13:37.143Z,999.90
2018-12-29T06:14:37.126Z,999.90
2018-12-29T06:15:37.134Z,999.90
2018-12-29T06:16:37.120Z,999.90
2018-12-29T06:17:37.118Z,999.90
2018-12-29T06:18:37.091Z,999.90
2018-12-29T06:19:37.137Z,999.90
2018-12-29T06:20:37.139Z,999.90
2018-12-29T06:21:37.089Z,999.90
2018-12-29T06:22:37.120Z,999.90
2018-12-29T06:23:37.051Z,999.90
2018-12-29T06:24:37.068Z,999.90
2018-12-29T06:25:37.045Z,999.90
2018-12-29T06:26:37.062Z,999.90
2018-12-29T06:27:37.018Z,999.90
2018-12-29T06:28:37.019Z,999.90
2018-12-29T06:29:37.033Z,999.90
2018-12-29T06:30:36.998Z,999.90
2018-12-29T06:31:37.006Z,999.90
2018-12-29T06:32:37.009Z,999.90
2018-12-29T06:33:36.979Z,999.90
2018-12-29T06:34:36.962Z,999.90
2018-12-29T06:35:37.008Z,999.90
2018-12-29T06:36:36.960Z,999.90
2018-12-29T06:37:36.943Z,999.90
2018-12-29T06:38:36.954Z,999.90
2018-12-29T06:39:36.954Z,999.90
2018-12-29T06:40:36.935Z,999.90
2018-12-29T06:41:36.939Z,999.90
2018-12-29T06:42:36.904Z,999.90
2018-12-29T06:43:36.924Z,999.90
2018-12-29T06:44:36.900Z,999.90
2018-12-29T06:45:36.949Z,999.90
2018-12-29T06:46:36.895Z,999.90
2018-12-29T06:47:36.934Z,999.90
2018-12-29T06:48:36.874Z,999.90
2018-12-29T06:49:36.895Z,999.90
2018-12-29T06:50:36.865Z,999.90
2018-12-29T06:51:36.893Z,999.90
2018-12-29T06:52:36.840Z,999.90
2018-12-29T06:53:36.834Z,999.90
2018-12-29T06:54:36.826Z,999.90
2018-12-29T06:55:36.903Z,999.90
2018-12-29T06:56:36.822Z,999.90
2018-12-29T06:57:36.791Z,999.90
2018-12-29T06:58:36.784Z,999.90
2018-12-29T06:59:36.762Z,999.90
2018-12-29T07:00:36.813Z,999.90
2018-12-29T07:01:36.765Z,999.90
2018-12-29T07:02:36.772Z,999.90
2018-12-29T07:03:36.747Z,999.90
2018-12-29T07:04:36.750Z,999.90
2018-12-29T07:05:36.747Z,999.90
2018-12-29T07:06:36.726Z,999.90
2018-12-29T07:07:36.724Z,999.90
2018-12-29T07:08:36.728Z,999.90
2018-12-29T07:09:36.718Z,999.90
2018-12-29T07:10:36.710Z,999.90
2018-12-29T07:11:36.693Z,999.90
2018-12-29T07:12:36.694Z,999.90
2018-12-29T07:13:36.670Z,999.90
2018-12-29T07:14:36.722Z,999.90
2018-12-29T07:15:36.668Z,999.90
2018-12-29T07:16:42.226Z,999.90
2018-12-29T07:17:36.634Z,999.90
2018-12-29T07:18:36.624Z,999.90
2018-12-29T07:19:36.640Z,999.90
2018-12-29T07:20:36.612Z,999.90
2018-12-29T07:21:36.595Z,999.90
2018-12-29T07:22:36.646Z,999.90
2018-12-29T07:23:36.603Z,999.90
2018-12-29T07:24:36.600Z,999.90
2018-12-29T07:25:36.602Z,999.90
2018-12-29T07:26:36.574Z,999.90
2018-12-29T07:27:36.585Z,999.90
2018-12-29T07:28:36.570Z,999.90
2018-12-29T07:29:38.374Z,999.90
2018-12-29T07:30:36.590Z,999.90
2018-12-29T07:31:36.769Z,999.90
2018-12-29T07:32:36.505Z,999.90
2018-12-29T07:33:36.536Z,999.90
2018-12-29T07:34:36.507Z,999.90
2018-12-29T07:35:36.501Z,999.90
2018-12-29T07:36:36.481Z,999.90
2018-12-29T07:37:36.489Z,999.90
2018-12-29T07:38:36.527Z,999.90
2018-12-29T07:39:36.531Z,999.90
2018-12-29T07:40:36.465Z,999.90
2018-12-29T07:41:36.460Z,999.90
2018-12-29T07:42:36.438Z,999.90
2018-12-29T07:43:36.419Z,999.90
2018-12-29T07:44:36.431Z,999.90
2018-12-29T07:45:36.418Z,999.90
2018-12-29T07:46:36.421Z,999.90
2018-12-29T07:47:36.451Z,999.90
2018-12-29T07:48:36.410Z,999.90
2018-12-29T07:49:36.396Z,999.90
2018-12-29T07:50:36.434Z,999.90
2018-12-29T07:51:36.388Z,999.90
2018-12-29T07:52:36.417Z,999.90
2018-12-29T07:53:36.410Z,999.90
2018-12-29T07:54:36.357Z,999.90
2018-12-29T07:55:36.393Z,999.90
2018-12-29T07:56:36.373Z,999.90
2018-12-29T07:57:36.321Z,999.90
2018-12-29T07:58:36.324Z,999.90
2018-12-29T07:59:36.346Z,999.90
2018-12-29T08:00:36.329Z,999.90
2018-12-29T08:01:36.306Z,999.90
2018-12-29T08:02:36.299Z,999.90
2018-12-29T08:03:36.278Z,999.90
2018-12-29T08:04:36.272Z,999.90
2018-12-29T08:05:36.252Z,999.90
2018-12-29T08:06:36.239Z,999.90
2018-12-29T08:07:36.244Z,999.90
2018-12-29T08:08:36.230Z,999.90
2018-12-29T08:09:36.221Z,999.90
2018-12-29T08:10:36.235Z,999.90
2018-12-29T08:11:36.212Z,999.90
2018-12-29T08:12:36.184Z,999.90
2018-12-29T08:13:36.541Z,999.90
2018-12-29T08:14:36.184Z,999.90
2018-12-29T08:15:36.186Z,999.90
2018-12-29T08:16:36.168Z,999.90
2018-12-29T08:17:36.169Z,999.90
2018-12-29T08:18:36.169Z,999.90
2018-12-29T08:19:36.174Z,999.90
2018-12-29T08:20:36.155Z,999.90
2018-12-29T08:21:36.132Z,999.90
2018-12-29T08:22:36.117Z,999.90
2018-12-29T08:23:36.124Z,999.90
2018-12-29T08:24:36.096Z,999.90
2018-12-29T08:25:36.100Z,999.90
2018-12-29T08:26:36.087Z,999.90
2018-12-29T08:27:36.074Z,999.90
2018-12-29T08:28:36.073Z,999.90
2018-12-29T08:29:36.053Z,999.90
2018-12-29T08:30:36.048Z,999.90
2018-12-29T08:31:36.054Z,999.90
2018-12-29T08:32:36.046Z,999.90
2018-12-29T08:33:36.043Z,999.90
2018-12-29T08:34:36.047Z,999.90
2018-12-29T08:35:35.995Z,999.90
2018-12-29T08:36:36.007Z,999.90
2018-12-29T08:37:36.015Z,999.90
2018-12-29T08:38:35.997Z,999.90
2018-12-29T08:39:35.986Z,999.90
2018-12-29T08:40:36.034Z,999.90
2018-12-29T08:41:35.971Z,999.90
2018-12-29T08:42:36.001Z,999.90
2018-12-29T08:43:35.949Z,999.90
2018-12-29T08:44:35.956Z,999.90
2018-12-29T08:45:35.953Z,999.90
2018-12-29T08:46:35.946Z,999.90
2018-12-29T08:47:35.933Z,999.90
2018-12-29T08:48:35.896Z,999.90
2018-12-29T08:49:35.909Z,999.90
2018-12-29T08:50:35.897Z,999.90
2018-12-29T08:51:35.913Z,999.90
2018-12-29T08:52:35.863Z,999.90
2018-12-29T08:53:35.880Z,999.90
2018-12-29T08:54:35.862Z,999.90
2018-12-29T08:55:35.869Z,999.90
2018-12-29T08:56:37.159Z,999.90
2018-12-29T08:57:35.887Z,999.90
2018-12-29T08:58:35.879Z,999.90
2018-12-29T08:59:35.866Z,999.90
2018-12-29T09:00:35.824Z,999.90
2018-12-29T09:01:35.803Z,999.90
2018-12-29T09:02:35.802Z,999.90
2018-12-29T09:03:35.792Z,999.90
2018-12-29T09:04:35.790Z,999.90
2018-12-29T09:05:35.773Z,999.90
2018-12-29T09:06:35.766Z,999.90
2018-12-29T09:07:35.779Z,999.90
2018-12-29T09:08:35.761Z,999.90
2018-12-29T09:09:35.764Z,999.90
2018-12-29T09:10:35.797Z,999.90
2018-12-29T09:11:35.717Z,999.90
2018-12-29T09:12:35.729Z,999.90
2018-12-29T09:13:35.712Z,999.90
2018-12-29T09:14:35.716Z,999.90
2018-12-29T09:15:35.700Z,999.90
2018-12-29T09:16:35.697Z,999.90
2018-12-29T09:17:35.713Z,999.90
2018-12-29T09:18:35.699Z,999.90
2018-12-29T09:19:35.661Z,999.90
2018-12-29T09:20:35.657Z,999.90
2018-12-29T09:21:35.656Z,999.90
2018-12-29T09:22:35.643Z,999.90
2018-12-29T09:23:35.690Z,999.90
2018-12-29T09:24:35.626Z,999.90
2018-12-29T09:25:35.598Z,999.90
2018-12-29T09:26:35.604Z,999.90
2018-12-29T09:27:35.599Z,999.90
2018-12-29T09:28:35.616Z,999.90
2018-12-29T09:29:35.581Z,999.90
2018-12-29T09:30:35.599Z,999.90
2018-12-29T09:31:35.583Z,999.90
2018-12-29T09:32:35.625Z,999.90
2018-12-29T09:33:35.569Z,999.90
2018-12-29T09:34:35.576Z,999.90
2018-12-29T09:35:35.556Z,999.90
2018-12-29T09:36:35.586Z,999.90
2018-12-29T09:37:35.544Z,999.90
2018-12-29T09:38:35.517Z,999.90
2018-12-29T09:39:35.514Z,999.90
2018-12-29T09:40:35.508Z,999.90
2018-12-29T09:41:35.504Z,999.90
2018-12-29T09:42:35.506Z,999.90
2018-12-29T09:43:35.489Z,999.90
2018-12-29T09:44:35.492Z,999.90
2018-12-29T09:45:35.491Z,999.90
2018-12-29T09:46:35.481Z,999.90
2018-12-29T09:47:35.453Z,999.90
2018-12-29T09:48:35.456Z,999.90
2018-12-29T09:49:35.444Z,999.90
2018-12-29T09:50:35.435Z,999.90
2018-12-29T09:51:35.438Z,999.90
2018-12-29T09:52:35.435Z,999.90
2018-12-29T09:53:35.415Z,999.90
2018-12-29T09:54:35.392Z,999.90
2018-12-29T09:55:35.396Z,999.90
2018-12-29T09:56:35.384Z,999.90
2018-12-29T09:57:35.425Z,999.90
2018-12-29T09:58:35.389Z,999.90
2018-12-29T09:59:35.383Z,999.90
2018-12-29T10:00:35.397Z,999.90
2018-12-29T10:01:35.328Z,999.90
2018-12-29T10:02:35.325Z,999.90
2018-12-29T10:03:35.326Z,999.90
2018-12-29T10:04:35.367Z,999.90
2018-12-29T10:05:35.324Z,999.90
2018-12-29T10:06:35.320Z,999.90
2018-12-29T10:07:35.373Z,999.90
2018-12-29T10:08:35.293Z,999.90
2018-12-29T10:09:35.293Z,999.90
2018-12-29T10:10:36.534Z,999.90
2018-12-29T10:11:35.281Z,999.90
2018-12-29T10:12:35.282Z,999.90
2018-12-29T10:13:35.260Z,999.90
2018-12-29T10:14:35.234Z,999.90
2018-12-29T10:15:35.254Z,999.90
2018-12-29T10:16:35.281Z,999.90
2018-12-29T10:17:35.232Z,999.90
2018-12-29T10:18:35.212Z,999.90
2018-12-29T10:19:35.219Z,999.90
2018-12-29T10:20:35.196Z,999.90
2018-12-29T10:21:35.177Z,999.90
2018-12-29T10:22:35.204Z,999.90
2018-12-29T10:23:35.198Z,999.90
2018-12-29T10:24:35.179Z,999.90
2018-12-29T10:25:35.182Z,999.90
2018-12-29T10:26:35.153Z,999.90
2018-12-29T10:27:35.148Z,999.90
2018-12-29T10:28:35.132Z,999.90
2018-12-29T10:29:35.136Z,999.90
2018-12-29T10:30:35.131Z,999.90
2018-12-29T10:31:35.180Z,999.90
2018-12-29T10:32:35.097Z,999.90
2018-12-29T10:33:35.107Z,999.90
2018-12-29T10:34:35.088Z,999.90
2018-12-29T10:35:35.136Z,999.90
2018-12-29T10:36:35.100Z,999.90
2018-12-29T10:37:35.067Z,999.90
2018-12-29T10:38:35.067Z,999.90
2018-12-29T10:39:35.053Z,999.90
2018-12-29T10:40:35.051Z,999.90
2018-12-29T10:41:35.053Z,999.90
2018-12-29T10:42:35.062Z,999.90
2018-12-29T10:43:35.045Z,999.90
2018-12-29T10:44:35.057Z,999.90
2018-12-29T10:45:35.018Z,999.90
2018-12-29T10:46:35.060Z,999.90
2018-12-29T10:47:35.048Z,999.90
2018-12-29T10:48:35.006Z,999.90
2018-12-29T10:49:34.999Z,999.90
2018-12-29T10:50:34.988Z,999.90
2018-12-29T10:51:34.971Z,999.90
2018-12-29T10:52:34.971Z,999.90
2018-12-29T10:53:34.962Z,999.90
2018-12-29T10:54:34.970Z,999.90
2018-12-29T10:55:35.014Z,999.90
2018-12-29T10:56:34.998Z,999.90
2018-12-29T10:57:34.958Z,999.90
2018-12-29T10:58:34.940Z,999.90
2018-12-29T10:59:34.940Z,999.90
2018-12-29T11:00:35.309Z,999.90
2018-12-29T11:01:34.929Z,999.90
2018-12-29T11:02:34.918Z,999.90
2018-12-29T11:03:34.925Z,999.90
2018-12-29T11:04:34.906Z,999.90
2018-12-29T11:05:34.882Z,999.90
2018-12-29T11:06:34.882Z,999.90
2018-12-29T11:07:34.869Z,999.90
2018-12-29T11:08:34.865Z,999.90
2018-12-29T11:09:34.872Z,999.90
2018-12-29T11:10:34.888Z,999.90
2018-12-29T11:11:34.836Z,999.90
2018-12-29T11:12:34.854Z,999.90
2018-12-29T11:13:34.840Z,999.90
2018-12-29T11:14:34.838Z,999.90
2018-12-29T11:15:34.805Z,999.90
2018-12-29T11:16:34.810Z,999.90
2018-12-29T11:17:41.989Z,999.90
2018-12-29T11:18:34.816Z,999.90
2018-12-29T11:19:34.824Z,999.90
2018-12-29T11:20:34.806Z,999.90
2018-12-29T11:21:34.804Z,999.90
2018-12-29T11:22:34.773Z,999.90
2018-12-29T11:23:34.785Z,999.90
2018-12-29T11:24:34.827Z,999.90
2018-12-29T11:25:34.752Z,999.90
2018-12-29T11:26:34.763Z,999.90
2018-12-29T11:27:34.774Z,999.90
2018-12-29T11:28:34.768Z,999.90
2018-12-29T11:29:34.741Z,999.90
2018-12-29T11:30:34.739Z,999.90
2018-12-29T11:31:34.728Z,999.90
2018-12-29T11:32:34.727Z,999.90
2018-12-29T11:33:34.730Z,999.90
2018-12-29T11:34:34.715Z,999.90
2018-12-29T11:35:34.709Z,999.90
2018-12-29T11:36:34.698Z,999.90
2018-12-29T11:37:34.707Z,999.90
2018-12-29T11:38:34.700Z,999.90
2018-12-29T11:39:34.692Z,999.90
2018-12-29T11:40:34.685Z,979.50
2018-12-29T11:41:34.696Z,944.60
2018-12-29T11:42:34.681Z,984.80
2018-12-29T11:43:34.659Z,972.70
2018-12-29T11:44:34.670Z,976.80
2018-12-29T11:45:34.663Z,960.50
2018-12-29T11:46:34.662Z,967.80
2018-12-29T11:47:34.647Z,971.30
2018-12-29T11:48:34.665Z,985.00
2018-12-29T11:49:34.630Z,956.10
2018-12-29T11:50:34.649Z,994.60
2018-12-29T11:51:34.638Z,985.90
2018-12-29T11:52:34.624Z,971.20
2018-12-29T11:53:34.630Z,965.90
2018-12-29T11:54:34.616Z,956.30
2018-12-29T11:55:34.655Z,937.40
2018-12-29T11:56:34.607Z,920.90
2018-12-29T11:57:34.626Z,880.90
2018-12-29T11:58:34.610Z,906.40
2018-12-29T11:59:34.579Z,890.20
2018-12-29T12:00:34.646Z,826.30
2018-12-29T12:01:34.582Z,890.20
2018-12-29T12:02:34.567Z,877.80
2018-12-29T12:03:34.619Z,801.40
2018-12-29T12:04:34.601Z,802.20
2018-12-29T12:05:34.575Z,785.50
2018-12-29T12:06:34.557Z,762.20
2018-12-29T12:07:34.559Z,766.40
2018-12-29T12:08:34.554Z,814.20
2018-12-29T12:09:34.585Z,749.30
2018-12-29T12:10:34.569Z,719.30
2018-12-29T12:11:34.556Z,662.60
2018-12-29T12:12:34.562Z,649.50
2018-12-29T12:13:34.531Z,648.00
2018-12-29T12:14:34.596Z,592.30
2018-12-29T12:15:34.599Z,547.30
2018-12-29T12:16:34.557Z,503.50
2018-12-29T12:17:34.538Z,509.20
2018-12-29T12:18:34.520Z,454.80
2018-12-29T12:19:34.577Z,393.30
2018-12-29T12:20:34.514Z,509.50
2018-12-29T12:21:34.581Z,466.70
2018-12-29T12:22:34.536Z,421.60
2018-12-29T12:23:34.529Z,409.70
2018-12-29T12:24:34.550Z,406.20
2018-12-29T12:25:34.519Z,399.30
2018-12-29T12:26:34.496Z,361.60
2018-12-29T12:27:34.523Z,344.70
2018-12-29T12:28:34.495Z,278.10